sensor_id;sensor_type;location;lat;lon;timestamp;temperature;humidity
70079;DHT22;57451;52.496;13.456;2022-12-18T00:01:15;-4.20;76.20
70079;DHT22;57451;52.496;13.456;2022-12-18T00:03:42;-4.30;76.40
70079;DHT22;57451;52.496;13.456;2022-12-18T00:06:14;-4.30;76.10
70079;DHT22;57451;52.496;13.456;2022-12-18T00:08:41;-4.30;76.10
70079;DHT22;57451;52.496;13.456;2022-12-18T00:11:12;-4.20;76.10
70079;DHT22;57451;52.496;13.456;2022-12-18T00:13:40;-4.20;76.00
70079;DHT22;57451;52.496;13.456;2022-12-18T00:16:10;-4.20;76.00
70079;DHT22;57451;52.496;13.456;2022-12-18T00:18:37;-4.20;75.80
70079;DHT22;57451;52.496;13.456;2022-12-18T00:21:08;-4.20;75.90
70079;DHT22;57451;52.496;13.456;2022-12-18T00:23:39;-4.20;75.70
70079;DHT22;57451;52.496;13.456;2022-12-18T00:26:12;-4.20;75.80
70079;DHT22;57451;52.496;13.456;2022-12-18T00:28:42;-4.20;75.80
70079;DHT22;57451;52.496;13.456;2022-12-18T00:31:11;-4.20;75.70
70079;DHT22;57451;52.496;13.456;2022-12-18T00:33:39;-4.10;75.50
70079;DHT22;57451;52.496;13.456;2022-12-18T00:36:10;-4.30;75.50
70079;DHT22;57451;52.496;13.456;2022-12-18T00:38:38;-4.30;75.40
70079;DHT22;57451;52.496;13.456;2022-12-18T00:41:08;-4.30;75.50
70079;DHT22;57451;52.496;13.456;2022-12-18T00:43:37;-4.50;75.70
70079;DHT22;57451;52.496;13.456;2022-12-18T00:46:06;-4.40;75.80
70079;DHT22;57451;52.496;13.456;2022-12-18T00:48:33;-4.40;75.40
70079;DHT22;57451;52.496;13.456;2022-12-18T00:51:00;-4.40;75.20
70079;DHT22;57451;52.496;13.456;2022-12-18T00:53:28;-4.40;75.20
70079;DHT22;57451;52.496;13.456;2022-12-18T00:55:56;-4.50;75.30
70079;DHT22;57451;52.496;13.456;2022-12-18T00:58:23;-4.50;75.50
70079;DHT22;57451;52.496;13.456;2022-12-18T01:00:51;-4.50;75.30
70079;DHT22;57451;52.496;13.456;2022-12-18T01:03:19;-4.50;75.60
70079;DHT22;57451;52.496;13.456;2022-12-18T01:05:46;-4.50;75.60
70079;DHT22;57451;52.496;13.456;2022-12-18T01:08:14;-4.60;75.20
70079;DHT22;57451;52.496;13.456;2022-12-18T01:10:43;-4.80;75.60
70079;DHT22;57451;52.496;13.456;2022-12-18T01:13:11;-5.00;76.20
70079;DHT22;57451;52.496;13.456;2022-12-18T01:15:38;-5.20;76.80
70079;DHT22;57451;52.496;13.456;2022-12-18T01:18:07;-5.20;77.40
70079;DHT22;57451;52.496;13.456;2022-12-18T01:20:34;-5.00;77.30
70079;DHT22;57451;52.496;13.456;2022-12-18T01:23:01;-4.90;76.50
70079;DHT22;57451;52.496;13.456;2022-12-18T01:25:29;-4.90;76.40
70079;DHT22;57451;52.496;13.456;2022-12-18T01:27:56;-4.90;76.30
70079;DHT22;57451;52.496;13.456;2022-12-18T01:30:24;-5.00;76.20
70079;DHT22;57451;52.496;13.456;2022-12-18T01:32:52;-5.00;76.60
70079;DHT22;57451;52.496;13.456;2022-12-18T01:35:21;-5.00;76.40
70079;DHT22;57451;52.496;13.456;2022-12-18T01:37:48;-5.00;76.60
70079;DHT22;57451;52.496;13.456;2022-12-18T01:40:15;-4.90;76.30
70079;DHT22;57451;52.496;13.456;2022-12-18T01:42:43;-4.90;76.10
70079;DHT22;57451;52.496;13.456;2022-12-18T01:45:26;-5.00;76.10
70079;DHT22;57451;52.496;13.456;2022-12-18T01:47:56;-5.00;76.30
70079;DHT22;57451;52.496;13.456;2022-12-18T01:50:28;-4.90;76.10
70079;DHT22;57451;52.496;13.456;2022-12-18T01:53:02;-5.00;76.20
70079;DHT22;57451;52.496;13.456;2022-12-18T01:55:32;-5.20;75.70
70079;DHT22;57451;52.496;13.456;2022-12-18T01:58:02;-5.20;76.50
70079;DHT22;57451;52.496;13.456;2022-12-18T02:00:30;-5.20;77.00
70079;DHT22;57451;52.496;13.456;2022-12-18T02:02:58;-5.10;76.90
70079;DHT22;57451;52.496;13.456;2022-12-18T02:05:47;-5.10;76.40
70079;DHT22;57451;52.496;13.456;2022-12-18T02:08:21;-5.10;77.00
70079;DHT22;57451;52.496;13.456;2022-12-18T02:10:59;-5.10;76.80
70079;DHT22;57451;52.496;13.456;2022-12-18T02:13:38;-5.10;76.80
70079;DHT22;57451;52.496;13.456;2022-12-18T02:16:13;-5.20;76.60
70079;DHT22;57451;52.496;13.456;2022-12-18T02:18:47;-5.20;77.20
70079;DHT22;57451;52.496;13.456;2022-12-18T02:21:28;-5.10;76.90
70079;DHT22;57451;52.496;13.456;2022-12-18T02:24:04;-5.10;76.70
70079;DHT22;57451;52.496;13.456;2022-12-18T02:26:40;-5.10;76.60
70079;DHT22;57451;52.496;13.456;2022-12-18T02:29:13;-5.00;76.50
70079;DHT22;57451;52.496;13.456;2022-12-18T02:31:51;-5.10;76.10
70079;DHT22;57451;52.496;13.456;2022-12-18T02:34:22;-5.30;76.80
70079;DHT22;57451;52.496;13.456;2022-12-18T02:36:51;-5.20;77.00
70079;DHT22;57451;52.496;13.456;2022-12-18T02:39:22;-5.10;77.10
70079;DHT22;57451;52.496;13.456;2022-12-18T02:42:00;-5.10;76.80
70079;DHT22;57451;52.496;13.456;2022-12-18T02:44:35;-5.20;76.90
70079;DHT22;57451;52.496;13.456;2022-12-18T02:47:10;-5.30;76.90
70079;DHT22;57451;52.496;13.456;2022-12-18T02:49:46;-5.30;77.10
70079;DHT22;57451;52.496;13.456;2022-12-18T02:52:24;-5.20;77.00
70079;DHT22;57451;52.496;13.456;2022-12-18T02:55:00;-5.20;76.60
70079;DHT22;57451;52.496;13.456;2022-12-18T02:57:39;-5.20;76.80
70079;DHT22;57451;52.496;13.456;2022-12-18T03:00:11;-5.20;76.70
70079;DHT22;57451;52.496;13.456;2022-12-18T03:02:44;-5.20;76.70
70079;DHT22;57451;52.496;13.456;2022-12-18T03:05:16;-5.20;76.70
70079;DHT22;57451;52.496;13.456;2022-12-18T03:07:50;-5.20;76.60
70079;DHT22;57451;52.496;13.456;2022-12-18T03:10:23;-5.30;76.80
70079;DHT22;57451;52.496;13.456;2022-12-18T03:12:58;-5.20;76.90
70079;DHT22;57451;52.496;13.456;2022-12-18T03:15:29;-5.20;76.50
70079;DHT22;57451;52.496;13.456;2022-12-18T03:18:08;-5.10;76.40
70079;DHT22;57451;52.496;13.456;2022-12-18T03:20:40;-5.10;76.20
70079;DHT22;57451;52.496;13.456;2022-12-18T03:23:16;-5.10;76.10
70079;DHT22;57451;52.496;13.456;2022-12-18T03:25:51;-5.10;76.10
70079;DHT22;57451;52.496;13.456;2022-12-18T03:28:23;-5.10;75.80
70079;DHT22;57451;52.496;13.456;2022-12-18T03:30:59;-5.20;75.90
70079;DHT22;57451;52.496;13.456;2022-12-18T03:33:32;-5.30;76.00
70079;DHT22;57451;52.496;13.456;2022-12-18T03:36:03;-5.40;76.20
70079;DHT22;57451;52.496;13.456;2022-12-18T03:38:32;-5.40;76.30
70079;DHT22;57451;52.496;13.456;2022-12-18T03:41:05;-5.40;76.60
70079;DHT22;57451;52.496;13.456;2022-12-18T03:43:49;-5.30;76.40
70079;DHT22;57451;52.496;13.456;2022-12-18T03:46:25;-5.40;76.10
70079;DHT22;57451;52.496;13.456;2022-12-18T03:48:59;-5.40;76.60
70079;DHT22;57451;52.496;13.456;2022-12-18T03:51:36;-5.40;76.40
70079;DHT22;57451;52.496;13.456;2022-12-18T03:54:06;-5.40;76.30
70079;DHT22;57451;52.496;13.456;2022-12-18T03:56:43;-5.50;76.50
70079;DHT22;57451;52.496;13.456;2022-12-18T03:59:14;-5.50;77.00
70079;DHT22;57451;52.496;13.456;2022-12-18T04:01:46;-5.50;76.60
70079;DHT22;57451;52.496;13.456;2022-12-18T04:04:16;-5.50;76.90
70079;DHT22;57451;52.496;13.456;2022-12-18T04:06:46;-5.50;76.80
70079;DHT22;57451;52.496;13.456;2022-12-18T04:09:17;-5.50;77.10
70079;DHT22;57451;52.496;13.456;2022-12-18T04:11:47;-5.50;76.80
70079;DHT22;57451;52.496;13.456;2022-12-18T04:14:17;-5.50;76.80
70079;DHT22;57451;52.496;13.456;2022-12-18T04:16:48;-5.40;76.90
70079;DHT22;57451;52.496;13.456;2022-12-18T04:19:18;-5.40;76.40
70079;DHT22;57451;52.496;13.456;2022-12-18T04:21:48;-5.40;76.60
70079;DHT22;57451;52.496;13.456;2022-12-18T04:24:17;-5.40;76.20
70079;DHT22;57451;52.496;13.456;2022-12-18T04:27:04;-5.50;76.30
70079;DHT22;57451;52.496;13.456;2022-12-18T04:29:40;-5.50;76.10
70079;DHT22;57451;52.496;13.456;2022-12-18T04:32:08;-5.50;76.50
70079;DHT22;57451;52.496;13.456;2022-12-18T04:34:36;-5.50;76.00
70079;DHT22;57451;52.496;13.456;2022-12-18T04:37:05;-5.60;76.20
70079;DHT22;57451;52.496;13.456;2022-12-18T04:39:32;-5.60;76.30
70079;DHT22;57451;52.496;13.456;2022-12-18T04:42:05;-5.60;76.20
70079;DHT22;57451;52.496;13.456;2022-12-18T04:44:33;-5.70;76.80
70079;DHT22;57451;52.496;13.456;2022-12-18T04:47:02;-5.70;76.70
70079;DHT22;57451;52.496;13.456;2022-12-18T04:49:30;-5.60;76.80
70079;DHT22;57451;52.496;13.456;2022-12-18T04:51:57;-5.60;76.70
70079;DHT22;57451;52.496;13.456;2022-12-18T04:54:24;-5.60;76.60
70079;DHT22;57451;52.496;13.456;2022-12-18T04:56:52;-5.70;76.40
70079;DHT22;57451;52.496;13.456;2022-12-18T04:59:20;-5.60;76.50
70079;DHT22;57451;52.496;13.456;2022-12-18T05:01:48;-5.60;76.40
70079;DHT22;57451;52.496;13.456;2022-12-18T05:04:16;-5.60;76.60
70079;DHT22;57451;52.496;13.456;2022-12-18T05:06:44;-5.50;76.60
70079;DHT22;57451;52.496;13.456;2022-12-18T05:09:11;-5.50;76.40
70079;DHT22;57451;52.496;13.456;2022-12-18T05:11:39;-5.50;76.40
70079;DHT22;57451;52.496;13.456;2022-12-18T05:14:06;-5.50;76.20
70079;DHT22;57451;52.496;13.456;2022-12-18T05:16:33;-5.50;76.30
70079;DHT22;57451;52.496;13.456;2022-12-18T05:19:01;-5.50;76.50
70079;DHT22;57451;52.496;13.456;2022-12-18T05:21:29;-5.50;76.40
70079;DHT22;57451;52.496;13.456;2022-12-18T05:23:56;-5.50;76.50
70079;DHT22;57451;52.496;13.456;2022-12-18T05:26:24;-5.50;76.80
70079;DHT22;57451;52.496;13.456;2022-12-18T05:28:51;-5.60;76.60
70079;DHT22;57451;52.496;13.456;2022-12-18T05:31:18;-5.50;76.80
70079;DHT22;57451;52.496;13.456;2022-12-18T05:33:46;-5.50;76.90
70079;DHT22;57451;52.496;13.456;2022-12-18T05:36:16;-5.40;76.80
70079;DHT22;57451;52.496;13.456;2022-12-18T05:38:44;-5.40;76.60
70079;DHT22;57451;52.496;13.456;2022-12-18T05:41:12;-5.40;76.60
70079;DHT22;57451;52.496;13.456;2022-12-18T05:43:40;-5.60;76.50
70079;DHT22;57451;52.496;13.456;2022-12-18T05:46:11;-5.70;77.70
70079;DHT22;57451;52.496;13.456;2022-12-18T05:48:39;-5.70;77.90
70079;DHT22;57451;52.496;13.456;2022-12-18T05:51:08;-5.70;78.00
70079;DHT22;57451;52.496;13.456;2022-12-18T05:53:37;-5.60;78.20
70079;DHT22;57451;52.496;13.456;2022-12-18T05:56:10;-5.50;78.10
70079;DHT22;57451;52.496;13.456;2022-12-18T05:58:37;-5.40;77.70
70079;DHT22;57451;52.496;13.456;2022-12-18T06:01:09;-5.40;77.50
70079;DHT22;57451;52.496;13.456;2022-12-18T06:03:37;-5.30;77.40
70079;DHT22;57451;52.496;13.456;2022-12-18T06:06:12;-5.30;77.30
70079;DHT22;57451;52.496;13.456;2022-12-18T06:08:40;-5.50;77.20
70079;DHT22;57451;52.496;13.456;2022-12-18T06:11:16;-5.50;77.60
70079;DHT22;57451;52.496;13.456;2022-12-18T06:13:44;-5.40;77.70
70079;DHT22;57451;52.496;13.456;2022-12-18T06:16:11;-5.30;77.60
70079;DHT22;57451;52.496;13.456;2022-12-18T06:18:39;-5.30;77.20
70079;DHT22;57451;52.496;13.456;2022-12-18T06:21:06;-5.30;77.00
70079;DHT22;57451;52.496;13.456;2022-12-18T06:23:34;-5.30;77.00
70079;DHT22;57451;52.496;13.456;2022-12-18T06:26:04;-5.40;77.10
70079;DHT22;57451;52.496;13.456;2022-12-18T06:28:33;-5.30;77.00
70079;DHT22;57451;52.496;13.456;2022-12-18T06:31:02;-5.30;76.90
70079;DHT22;57451;52.496;13.456;2022-12-18T06:33:30;-5.40;76.90
70079;DHT22;57451;52.496;13.456;2022-12-18T06:36:00;-5.50;77.10
70079;DHT22;57451;52.496;13.456;2022-12-18T06:38:27;-5.40;77.20
70079;DHT22;57451;52.496;13.456;2022-12-18T06:40:55;-5.40;77.50
70079;DHT22;57451;52.496;13.456;2022-12-18T06:43:22;-5.40;77.20
70079;DHT22;57451;52.496;13.456;2022-12-18T06:45:51;-5.40;77.30
70079;DHT22;57451;52.496;13.456;2022-12-18T06:48:20;-5.40;77.10
70079;DHT22;57451;52.496;13.456;2022-12-18T06:50:47;-5.40;77.10
70079;DHT22;57451;52.496;13.456;2022-12-18T06:53:14;-5.40;77.20
70079;DHT22;57451;52.496;13.456;2022-12-18T06:55:42;-5.40;77.10
70079;DHT22;57451;52.496;13.456;2022-12-18T06:58:09;-5.40;77.10
70079;DHT22;57451;52.496;13.456;2022-12-18T07:00:37;-5.50;77.10
70079;DHT22;57451;52.496;13.456;2022-12-18T07:03:06;-5.60;77.60
70079;DHT22;57451;52.496;13.456;2022-12-18T07:05:33;-5.60;78.10
70079;DHT22;57451;52.496;13.456;2022-12-18T07:08:01;-5.50;77.80
70079;DHT22;57451;52.496;13.456;2022-12-18T07:10:28;-5.50;77.70
70079;DHT22;57451;52.496;13.456;2022-12-18T07:12:56;-5.50;77.70
70079;DHT22;57451;52.496;13.456;2022-12-18T07:15:23;-5.40;77.50
70079;DHT22;57451;52.496;13.456;2022-12-18T07:17:50;-5.40;77.30
70079;DHT22;57451;52.496;13.456;2022-12-18T07:20:19;-5.50;77.70
70079;DHT22;57451;52.496;13.456;2022-12-18T07:22:46;-5.50;77.70
70079;DHT22;57451;52.496;13.456;2022-12-18T07:25:20;-5.50;77.40
70079;DHT22;57451;52.496;13.456;2022-12-18T07:27:48;-5.50;77.50
70079;DHT22;57451;52.496;13.456;2022-12-18T07:30:15;-5.50;77.50
70079;DHT22;57451;52.496;13.456;2022-12-18T07:32:42;-5.50;77.60
70079;DHT22;57451;52.496;13.456;2022-12-18T07:35:09;-5.50;78.00
70079;DHT22;57451;52.496;13.456;2022-12-18T07:37:38;-5.40;77.70
70079;DHT22;57451;52.496;13.456;2022-12-18T07:40:07;-5.40;77.70
70079;DHT22;57451;52.496;13.456;2022-12-18T07:42:35;-5.40;77.40
70079;DHT22;57451;52.496;13.456;2022-12-18T07:45:03;-5.40;77.30
70079;DHT22;57451;52.496;13.456;2022-12-18T07:47:31;-5.40;77.60
70079;DHT22;57451;52.496;13.456;2022-12-18T07:50:00;-5.40;77.70
70079;DHT22;57451;52.496;13.456;2022-12-18T07:52:28;-5.40;77.50
70079;DHT22;57451;52.496;13.456;2022-12-18T07:54:56;-5.40;77.40
70079;DHT22;57451;52.496;13.456;2022-12-18T07:57:23;-5.40;77.40
70079;DHT22;57451;52.496;13.456;2022-12-18T08:00:12;-5.30;77.30
70079;DHT22;57451;52.496;13.456;2022-12-18T08:02:39;-5.30;76.80
70079;DHT22;57451;52.496;13.456;2022-12-18T08:05:08;-5.30;76.90
70079;DHT22;57451;52.496;13.456;2022-12-18T08:07:36;-5.30;76.90
70079;DHT22;57451;52.496;13.456;2022-12-18T08:10:05;-5.30;76.70
70079;DHT22;57451;52.496;13.456;2022-12-18T08:12:33;-5.40;77.10
70079;DHT22;57451;52.496;13.456;2022-12-18T08:15:01;-5.40;77.10
70079;DHT22;57451;52.496;13.456;2022-12-18T08:17:28;-5.40;77.50
70079;DHT22;57451;52.496;13.456;2022-12-18T08:19:56;-5.40;77.20
70079;DHT22;57451;52.496;13.456;2022-12-18T08:22:23;-5.30;77.20
70079;DHT22;57451;52.496;13.456;2022-12-18T08:24:50;-5.30;77.20
70079;DHT22;57451;52.496;13.456;2022-12-18T08:27:19;-5.20;77.10
70079;DHT22;57451;52.496;13.456;2022-12-18T08:29:56;-5.20;76.50
70079;DHT22;57451;52.496;13.456;2022-12-18T08:32:23;-5.20;76.70
70079;DHT22;57451;52.496;13.456;2022-12-18T08:34:51;-5.20;76.60
70079;DHT22;57451;52.496;13.456;2022-12-18T08:37:18;-5.20;76.70
70079;DHT22;57451;52.496;13.456;2022-12-18T08:39:45;-5.20;76.30
70079;DHT22;57451;52.496;13.456;2022-12-18T08:42:13;-5.30;76.20
70079;DHT22;57451;52.496;13.456;2022-12-18T08:45:04;-5.30;76.50
70079;DHT22;57451;52.496;13.456;2022-12-18T08:47:31;-5.30;76.40
70079;DHT22;57451;52.496;13.456;2022-12-18T08:49:58;-5.30;76.80
70079;DHT22;57451;52.496;13.456;2022-12-18T08:52:26;-5.30;77.10
70079;DHT22;57451;52.496;13.456;2022-12-18T08:54:53;-5.20;77.10
70079;DHT22;57451;52.496;13.456;2022-12-18T08:57:20;-5.10;76.70
70079;DHT22;57451;52.496;13.456;2022-12-18T08:59:48;-5.10;76.80
70079;DHT22;57451;52.496;13.456;2022-12-18T09:02:16;-5.10;76.50
70079;DHT22;57451;52.496;13.456;2022-12-18T09:04:46;-5.10;76.90
70079;DHT22;57451;52.496;13.456;2022-12-18T09:07:21;-5.20;76.90
70079;DHT22;57451;52.496;13.456;2022-12-18T09:09:48;-5.10;76.90
70079;DHT22;57451;52.496;13.456;2022-12-18T09:12:16;-5.20;77.10
70079;DHT22;57451;52.496;13.456;2022-12-18T09:14:43;-5.20;77.50
70079;DHT22;57451;52.496;13.456;2022-12-18T09:17:10;-5.20;77.80
70079;DHT22;57451;52.496;13.456;2022-12-18T09:19:39;-5.10;77.70
70079;DHT22;57451;52.496;13.456;2022-12-18T09:22:06;-5.00;77.60
70079;DHT22;57451;52.496;13.456;2022-12-18T09:24:34;-5.00;77.80
70079;DHT22;57451;52.496;13.456;2022-12-18T09:27:01;-4.90;77.70
70079;DHT22;57451;52.496;13.456;2022-12-18T09:29:29;-4.90;77.30
70079;DHT22;57451;52.496;13.456;2022-12-18T09:31:56;-4.80;77.20
70079;DHT22;57451;52.496;13.456;2022-12-18T09:34:23;-4.80;77.10
70079;DHT22;57451;52.496;13.456;2022-12-18T09:36:52;-4.90;77.30
70079;DHT22;57451;52.496;13.456;2022-12-18T09:39:20;-4.80;77.80
70079;DHT22;57451;52.496;13.456;2022-12-18T09:41:51;-4.70;77.80
70079;DHT22;57451;52.496;13.456;2022-12-18T09:44:23;-4.70;77.70
70079;DHT22;57451;52.496;13.456;2022-12-18T09:46:58;-4.70;77.90
70079;DHT22;57451;52.496;13.456;2022-12-18T09:49:30;-4.70;78.20
70079;DHT22;57451;52.496;13.456;2022-12-18T09:52:03;-4.60;78.00
70079;DHT22;57451;52.496;13.456;2022-12-18T09:54:35;-4.70;78.20
70079;DHT22;57451;52.496;13.456;2022-12-18T09:57:04;-4.70;78.80
70079;DHT22;57451;52.496;13.456;2022-12-18T09:59:36;-4.60;78.90
70079;DHT22;57451;52.496;13.456;2022-12-18T10:02:15;-4.50;78.50
70079;DHT22;57451;52.496;13.456;2022-12-18T10:04:43;-4.50;78.60
70079;DHT22;57451;52.496;13.456;2022-12-18T10:07:20;-4.50;78.90
70079;DHT22;57451;52.496;13.456;2022-12-18T10:09:58;-4.50;79.20
70079;DHT22;57451;52.496;13.456;2022-12-18T10:12:34;-4.50;78.90
70079;DHT22;57451;52.496;13.456;2022-12-18T10:15:06;-4.50;79.10
70079;DHT22;57451;52.496;13.456;2022-12-18T10:17:43;-4.40;78.90
70079;DHT22;57451;52.496;13.456;2022-12-18T10:20:16;-4.40;79.00
70079;DHT22;57451;52.496;13.456;2022-12-18T10:22:52;-4.30;79.10
70079;DHT22;57451;52.496;13.456;2022-12-18T10:25:23;-4.20;79.00
70079;DHT22;57451;52.496;13.456;2022-12-18T10:27:54;-4.30;79.30
70079;DHT22;57451;52.496;13.456;2022-12-18T10:30:24;-4.30;79.60
70079;DHT22;57451;52.496;13.456;2022-12-18T10:32:52;-4.30;80.00
70079;DHT22;57451;52.496;13.456;2022-12-18T10:35:21;-4.20;80.40
70079;DHT22;57451;52.496;13.456;2022-12-18T10:38:05;-4.20;79.80
70079;DHT22;57451;52.496;13.456;2022-12-18T10:40:48;-4.10;80.10
70079;DHT22;57451;52.496;13.456;2022-12-18T10:43:19;-4.00;80.20
70079;DHT22;57451;52.496;13.456;2022-12-18T10:46:00;-3.90;79.70
70079;DHT22;57451;52.496;13.456;2022-12-18T10:48:28;-3.90;79.30
70079;DHT22;57451;52.496;13.456;2022-12-18T10:50:57;-3.80;79.60
70079;DHT22;57451;52.496;13.456;2022-12-18T10:53:41;-3.80;79.60
70079;DHT22;57451;52.496;13.456;2022-12-18T10:56:10;-3.80;79.70
70079;DHT22;57451;52.496;13.456;2022-12-18T10:58:38;-3.70;79.30
70079;DHT22;57451;52.496;13.456;2022-12-18T11:01:10;-3.70;78.70
70079;DHT22;57451;52.496;13.456;2022-12-18T11:03:39;-3.70;78.70
70079;DHT22;57451;52.496;13.456;2022-12-18T11:06:09;-3.80;78.60
70079;DHT22;57451;52.496;13.456;2022-12-18T11:08:38;-3.80;78.70
70079;DHT22;57451;52.496;13.456;2022-12-18T11:11:16;-3.80;78.70
70079;DHT22;57451;52.496;13.456;2022-12-18T11:13:55;-3.70;79.10
70079;DHT22;57451;52.496;13.456;2022-12-18T11:16:25;-3.80;78.60
70079;DHT22;57451;52.496;13.456;2022-12-18T11:18:53;-3.80;78.40
70079;DHT22;57451;52.496;13.456;2022-12-18T11:21:20;-3.80;78.60
70079;DHT22;57451;52.496;13.456;2022-12-18T11:23:51;-3.80;78.80
70079;DHT22;57451;52.496;13.456;2022-12-18T11:26:20;-3.80;78.60
70079;DHT22;57451;52.496;13.456;2022-12-18T11:29:08;-3.70;78.30
70079;DHT22;57451;52.496;13.456;2022-12-18T11:31:36;-3.60;78.10
70079;DHT22;57451;52.496;13.456;2022-12-18T11:34:09;-3.60;77.80
70079;DHT22;57451;52.496;13.456;2022-12-18T11:36:58;-3.60;78.00
70079;DHT22;57451;52.496;13.456;2022-12-18T11:39:32;-3.70;78.30
70079;DHT22;57451;52.496;13.456;2022-12-18T11:42:05;-3.60;78.20
70079;DHT22;57451;52.496;13.456;2022-12-18T11:44:42;-3.60;78.00
70079;DHT22;57451;52.496;13.456;2022-12-18T11:47:19;-3.60;78.10
70079;DHT22;57451;52.496;13.456;2022-12-18T11:49:49;-3.60;78.00
70079;DHT22;57451;52.496;13.456;2022-12-18T11:52:19;-3.60;77.90
70079;DHT22;57451;52.496;13.456;2022-12-18T11:54:51;-3.60;78.30
70079;DHT22;57451;52.496;13.456;2022-12-18T11:57:29;-3.60;78.40
70079;DHT22;57451;52.496;13.456;2022-12-18T12:00:04;-3.50;78.00
70079;DHT22;57451;52.496;13.456;2022-12-18T12:05:51;-3.60;78.20
70079;DHT22;57451;52.496;13.456;2022-12-18T12:08:32;-3.60;78.10
70079;DHT22;57451;52.496;13.456;2022-12-18T12:11:05;-3.60;78.10
70079;DHT22;57451;52.496;13.456;2022-12-18T12:13:43;-3.50;78.40
70079;DHT22;57451;52.496;13.456;2022-12-18T12:16:17;-3.50;78.10
70079;DHT22;57451;52.496;13.456;2022-12-18T12:18:57;-3.50;78.10
70079;DHT22;57451;52.496;13.456;2022-12-18T12:21:35;-3.40;78.20
70079;DHT22;57451;52.496;13.456;2022-12-18T12:24:14;-3.40;78.00
70079;DHT22;57451;52.496;13.456;2022-12-18T12:26:52;-3.30;77.60
70079;DHT22;57451;52.496;13.456;2022-12-18T12:29:30;-3.30;77.60
70079;DHT22;57451;52.496;13.456;2022-12-18T12:32:11;-3.30;77.70
70079;DHT22;57451;52.496;13.456;2022-12-18T12:34:49;-3.30;77.60
70079;DHT22;57451;52.496;13.456;2022-12-18T12:37:35;-3.30;77.50
70079;DHT22;57451;52.496;13.456;2022-12-18T12:40:06;-3.30;77.60
70079;DHT22;57451;52.496;13.456;2022-12-18T12:42:56;-3.30;77.30
70079;DHT22;57451;52.496;13.456;2022-12-18T12:45:45;-3.30;77.40
70079;DHT22;57451;52.496;13.456;2022-12-18T12:48:19;-3.30;77.50
70079;DHT22;57451;52.496;13.456;2022-12-18T12:50:49;-3.20;77.40
70079;DHT22;57451;52.496;13.456;2022-12-18T12:53:23;-3.20;77.40
70079;DHT22;57451;52.496;13.456;2022-12-18T12:55:52;-3.10;77.40
70079;DHT22;57451;52.496;13.456;2022-12-18T12:58:28;-3.10;77.10
70079;DHT22;57451;52.496;13.456;2022-12-18T13:01:07;-3.20;77.00
70079;DHT22;57451;52.496;13.456;2022-12-18T13:03:43;-3.20;77.20
70079;DHT22;57451;52.496;13.456;2022-12-18T13:06:17;-3.10;77.10
70079;DHT22;57451;52.496;13.456;2022-12-18T13:08:55;-3.10;77.00
70079;DHT22;57451;52.496;13.456;2022-12-18T13:11:32;-3.10;77.10
70079;DHT22;57451;52.496;13.456;2022-12-18T13:14:31;-3.10;77.00
70079;DHT22;57451;52.496;13.456;2022-12-18T13:17:29;-3.10;77.20
70079;DHT22;57451;52.496;13.456;2022-12-18T13:20:06;-3.10;77.20
70079;DHT22;57451;52.496;13.456;2022-12-18T13:22:36;-3.10;76.80
70079;DHT22;57451;52.496;13.456;2022-12-18T13:25:35;-3.20;77.10
70079;DHT22;57451;52.496;13.456;2022-12-18T13:28:11;-3.10;77.20
70079;DHT22;57451;52.496;13.456;2022-12-18T13:30:58;-3.10;77.20
70079;DHT22;57451;52.496;13.456;2022-12-18T13:33:42;-3.10;77.00
70079;DHT22;57451;52.496;13.456;2022-12-18T13:36:32;-3.20;77.00
70079;DHT22;57451;52.496;13.456;2022-12-18T13:42:38;-3.20;77.30
70079;DHT22;57451;52.496;13.456;2022-12-18T13:45:44;-3.20;77.30
70079;DHT22;57451;52.496;13.456;2022-12-18T13:48:20;-3.30;77.10
70079;DHT22;57451;52.496;13.456;2022-12-18T13:51:00;-3.30;76.90
70079;DHT22;57451;52.496;13.456;2022-12-18T13:53:39;-3.30;77.10
70079;DHT22;57451;52.496;13.456;2022-12-18T13:56:15;-3.30;77.30
70079;DHT22;57451;52.496;13.456;2022-12-18T13:59:12;-3.30;77.00
70079;DHT22;57451;52.496;13.456;2022-12-18T14:01:45;-3.30;77.00
70079;DHT22;57451;52.496;13.456;2022-12-18T14:04:20;-3.30;77.40
70079;DHT22;57451;52.496;13.456;2022-12-18T14:06:52;-3.40;77.50
70079;DHT22;57451;52.496;13.456;2022-12-18T14:09:24;-3.30;77.90
70079;DHT22;57451;52.496;13.456;2022-12-18T14:11:54;-3.30;77.70
70079;DHT22;57451;52.496;13.456;2022-12-18T14:14:44;-3.30;77.60
70079;DHT22;57451;52.496;13.456;2022-12-18T14:17:12;-3.20;77.80
70079;DHT22;57451;52.496;13.456;2022-12-18T14:19:43;-3.20;77.60
70079;DHT22;57451;52.496;13.456;2022-12-18T14:22:17;-3.20;77.70
70079;DHT22;57451;52.496;13.456;2022-12-18T14:24:46;-3.20;77.60
70079;DHT22;57451;52.496;13.456;2022-12-18T14:27:21;-3.20;77.40
70079;DHT22;57451;52.496;13.456;2022-12-18T14:29:49;-3.20;77.40
70079;DHT22;57451;52.496;13.456;2022-12-18T14:32:18;-3.20;77.40
70079;DHT22;57451;52.496;13.456;2022-12-18T14:34:47;-3.30;77.50
70079;DHT22;57451;52.496;13.456;2022-12-18T14:37:17;-3.20;77.80
70079;DHT22;57451;52.496;13.456;2022-12-18T14:39:57;-3.20;77.70
70079;DHT22;57451;52.496;13.456;2022-12-18T14:42:25;-3.20;77.80
70079;DHT22;57451;52.496;13.456;2022-12-18T14:45:35;-3.20;77.50
70079;DHT22;57451;52.496;13.456;2022-12-18T14:48:14;-3.30;77.20
70079;DHT22;57451;52.496;13.456;2022-12-18T14:50:55;-3.30;77.00
70079;DHT22;57451;52.496;13.456;2022-12-18T14:53:33;-3.30;77.00
70079;DHT22;57451;52.496;13.456;2022-12-18T14:56:01;-3.40;77.40
70079;DHT22;57451;52.496;13.456;2022-12-18T14:58:29;-3.50;77.00
70079;DHT22;57451;52.496;13.456;2022-12-18T15:00:57;-3.60;77.60
70079;DHT22;57451;52.496;13.456;2022-12-18T15:03:25;-3.60;77.60
70079;DHT22;57451;52.496;13.456;2022-12-18T15:05:53;-3.80;78.10
70079;DHT22;57451;52.496;13.456;2022-12-18T15:08:35;-3.70;78.60
70079;DHT22;57451;52.496;13.456;2022-12-18T15:13:46;-3.80;78.80
70079;DHT22;57451;52.496;13.456;2022-12-18T15:16:13;-3.80;78.90
70079;DHT22;57451;52.496;13.456;2022-12-18T15:18:42;-3.80;79.00
70079;DHT22;57451;52.496;13.456;2022-12-18T15:21:17;-3.70;78.90
70079;DHT22;57451;52.496;13.456;2022-12-18T15:23:49;-3.70;78.50
70079;DHT22;57451;52.496;13.456;2022-12-18T15:26:18;-3.70;79.20
70079;DHT22;57451;52.496;13.456;2022-12-18T15:28:47;-3.70;78.80
70079;DHT22;57451;52.496;13.456;2022-12-18T15:31:29;-3.70;78.90
70079;DHT22;57451;52.496;13.456;2022-12-18T15:34:09;-3.60;79.00
70079;DHT22;57451;52.496;13.456;2022-12-18T15:36:37;-3.60;79.00
70079;DHT22;57451;52.496;13.456;2022-12-18T15:39:06;-3.60;79.00
70079;DHT22;57451;52.496;13.456;2022-12-18T15:41:35;-3.60;78.70
70079;DHT22;57451;52.496;13.456;2022-12-18T15:44:14;-3.60;78.90
70079;DHT22;57451;52.496;13.456;2022-12-18T15:46:46;-3.60;78.60
70079;DHT22;57451;52.496;13.456;2022-12-18T15:49:13;-3.60;78.50
70079;DHT22;57451;52.496;13.456;2022-12-18T15:51:41;-3.60;78.60
70079;DHT22;57451;52.496;13.456;2022-12-18T15:54:13;-3.60;78.50